sensor_id;sensor_type;location;lat;lon;timestamp;temperature;humidity
19242;DHT22;9755;47.790;9.620;2022-09-27T00:01:48;10.80;99.90
19242;DHT22;9755;47.790;9.620;2022-09-27T00:04:17;10.80;2.80
19242;DHT22;9755;47.790;9.620;2022-09-27T00:06:44;10.80;1.00
19242;DHT22;9755;47.790;9.620;2022-09-27T00:09:11;10.80;1.00
19242;DHT22;9755;47.790;9.620;2022-09-27T00:11:39;10.80;99.90
19242;DHT22;9755;47.790;9.620;2022-09-27T00:14:09;10.70;1.00
19242;DHT22;9755;47.790;9.620;2022-09-27T00:16:38;10.50;1.00
19242;DHT22;9755;47.790;9.620;2022-09-27T00:19:07;10.40;99.90
19242;DHT22;9755;47.790;9.620;2022-09-27T00:21:37;10.30;1.00
19242;DHT22;9755;47.790;9.620;2022-09-27T00:24:04;10.20;1.00
19242;DHT22;9755;47.790;9.620;2022-09-27T00:26:32;10.20;99.90
19242;DHT22;9755;47.790;9.620;2022-09-27T00:28:59;10.10;1.00
19242;DHT22;9755;47.790;9.620;2022-09-27T00:31:28;10.00;1.00
19242;DHT22;9755;47.790;9.620;2022-09-27T00:33:56;10.00;1.00
19242;DHT22;9755;47.790;9.620;2022-09-27T00:36:25;10.00;1.00
19242;DHT22;9755;47.790;9.620;2022-09-27T00:38:54;9.90;1.00
19242;DHT22;9755;47.790;9.620;2022-09-27T00:41:23;9.90;1.00
19242;DHT22;9755;47.790;9.620;2022-09-27T00:43:52;9.80;73.10
19242;DHT22;9755;47.790;9.620;2022-09-27T00:46:22;9.80;99.90
19242;DHT22;9755;47.790;9.620;2022-09-27T00:49:10;9.80;99.90
19242;DHT22;9755;47.790;9.620;2022-09-27T00:51:41;9.80;99.90
19242;DHT22;9755;47.790;9.620;2022-09-27T00:54:12;9.70;99.90
19242;DHT22;9755;47.790;9.620;2022-09-27T00:56:41;9.70;99.90
19242;DHT22;9755;47.790;9.620;2022-09-27T00:59:12;9.70;99.90
19242;DHT22;9755;47.790;9.620;2022-09-27T01:01:42;9.70;99.90
19242;DHT22;9755;47.790;9.620;2022-09-27T01:04:10;9.70;99.90
19242;DHT22;9755;47.790;9.620;2022-09-27T01:06:38;9.70;99.90
19242;DHT22;9755;47.790;9.620;2022-09-27T01:09:06;9.60;99.90
19242;DHT22;9755;47.790;9.620;2022-09-27T01:11:53;9.60;99.90
19242;DHT22;9755;47.790;9.620;2022-09-27T01:14:40;9.70;99.90
19242;DHT22;9755;47.790;9.620;2022-09-27T01:17:17;9.70;99.90
19242;DHT22;9755;47.790;9.620;2022-09-27T01:20:06;9.70;99.90
19242;DHT22;9755;47.790;9.620;2022-09-27T01:22:42;9.60;99.90
19242;DHT22;9755;47.790;9.620;2022-09-27T01:25:33;9.70;99.90
19242;DHT22;9755;47.790;9.620;2022-09-27T01:28:12;9.70;99.90
19242;DHT22;9755;47.790;9.620;2022-09-27T01:30:47;9.70;99.90
19242;DHT22;9755;47.790;9.620;2022-09-27T01:33:33;9.80;99.90
19242;DHT22;9755;47.790;9.620;2022-09-27T01:36:23;9.80;99.90
19242;DHT22;9755;47.790;9.620;2022-09-27T01:39:06;9.80;99.90
19242;DHT22;9755;47.790;9.620;2022-09-27T01:41:37;9.80;99.90
19242;DHT22;9755;47.790;9.620;2022-09-27T01:44:14;9.80;99.90
19242;DHT22;9755;47.790;9.620;2022-09-27T01:46:48;9.80;99.90
19242;DHT22;9755;47.790;9.620;2022-09-27T01:49:21;9.80;99.90
19242;DHT22;9755;47.790;9.620;2022-09-27T01:51:53;9.80;99.90
19242;DHT22;9755;47.790;9.620;2022-09-27T01:54:30;9.80;99.90
19242;DHT22;9755;47.790;9.620;2022-09-27T01:57:01;9.90;99.90
19242;DHT22;9755;47.790;9.620;2022-09-27T01:59:34;9.90;99.90
19242;DHT22;9755;47.790;9.620;2022-09-27T02:02:07;9.90;99.90
19242;DHT22;9755;47.790;9.620;2022-09-27T02:04:38;9.90;99.90
19242;DHT22;9755;47.790;9.620;2022-09-27T02:07:10;9.90;99.90
19242;DHT22;9755;47.790;9.620;2022-09-27T02:09:40;9.90;99.90
19242;DHT22;9755;47.790;9.620;2022-09-27T02:12:12;9.90;99.90
19242;DHT22;9755;47.790;9.620;2022-09-27T02:14:43;9.90;99.90
19242;DHT22;9755;47.790;9.620;2022-09-27T02:17:21;9.90;99.90
19242;DHT22;9755;47.790;9.620;2022-09-27T02:19:55;9.90;99.90
19242;DHT22;9755;47.790;9.620;2022-09-27T02:22:33;9.90;99.90
19242;DHT22;9755;47.790;9.620;2022-09-27T02:25:06;9.90;99.90
19242;DHT22;9755;47.790;9.620;2022-09-27T02:27:42;9.90;99.90
19242;DHT22;9755;47.790;9.620;2022-09-27T02:30:13;9.80;99.90
19242;DHT22;9755;47.790;9.620;2022-09-27T02:32:42;9.80;99.90
19242;DHT22;9755;47.790;9.620;2022-09-27T02:35:13;9.90;99.90
19242;DHT22;9755;47.790;9.620;2022-09-27T02:37:42;9.80;99.90
19242;DHT22;9755;47.790;9.620;2022-09-27T02:40:09;9.80;99.90
19242;DHT22;9755;47.790;9.620;2022-09-27T02:42:39;9.70;99.90
19242;DHT22;9755;47.790;9.620;2022-09-27T02:45:08;9.80;99.90
19242;DHT22;9755;47.790;9.620;2022-09-27T02:48:08;9.70;99.90
19242;DHT22;9755;47.790;9.620;2022-09-27T02:51:05;9.70;99.90
19242;DHT22;9755;47.790;9.620;2022-09-27T02:53:52;9.70;99.90
19242;DHT22;9755;47.790;9.620;2022-09-27T02:56:24;9.70;99.90
19242;DHT22;9755;47.790;9.620;2022-09-27T02:58:59;9.70;99.90
19242;DHT22;9755;47.790;9.620;2022-09-27T03:01:32;9.70;99.90
19242;DHT22;9755;47.790;9.620;2022-09-27T03:04:06;9.70;99.90
19242;DHT22;9755;47.790;9.620;2022-09-27T03:06:37;9.70;99.90
19242;DHT22;9755;47.790;9.620;2022-09-27T03:09:13;9.70;99.90
19242;DHT22;9755;47.790;9.620;2022-09-27T03:11:40;9.70;99.90
19242;DHT22;9755;47.790;9.620;2022-09-27T03:14:07;9.70;99.90
19242;DHT22;9755;47.790;9.620;2022-09-27T03:16:34;9.70;99.90
19242;DHT22;9755;47.790;9.620;2022-09-27T03:19:03;9.70;99.90
19242;DHT22;9755;47.790;9.620;2022-09-27T03:21:30;9.60;99.90
19242;DHT22;9755;47.790;9.620;2022-09-27T03:23:57;9.60;99.90
19242;DHT22;9755;47.790;9.620;2022-09-27T03:26:24;9.60;99.90
19242;DHT22;9755;47.790;9.620;2022-09-27T06:53:44;9.60;99.90
19242;DHT22;9755;47.790;9.620;2022-09-27T06:56:12;9.60;61.40
19242;DHT22;9755;47.790;9.620;2022-09-27T06:58:39;9.70;39.10
19242;DHT22;9755;47.790;9.620;2022-09-27T07:01:28;9.80;1.00
19242;DHT22;9755;47.790;9.620;2022-09-27T07:03:55;9.80;1.00
19242;DHT22;9755;47.790;9.620;2022-09-27T07:06:24;9.80;1.00
19242;DHT22;9755;47.790;9.620;2022-09-27T07:08:52;9.80;1.00
19242;DHT22;9755;47.790;9.620;2022-09-27T07:11:20;9.80;1.00
19242;DHT22;9755;47.790;9.620;2022-09-27T07:13:48;9.70;1.00
19242;DHT22;9755;47.790;9.620;2022-09-27T07:16:16;9.70;1.00
19242;DHT22;9755;47.790;9.620;2022-09-27T07:18:46;9.70;1.00
19242;DHT22;9755;47.790;9.620;2022-09-27T07:21:14;9.80;1.00
19242;DHT22;9755;47.790;9.620;2022-09-27T07:23:42;9.80;1.00
19242;DHT22;9755;47.790;9.620;2022-09-27T07:26:09;9.80;99.90
19242;DHT22;9755;47.790;9.620;2022-09-27T07:28:37;9.80;99.90
19242;DHT22;9755;47.790;9.620;2022-09-27T07:31:06;9.80;99.90
19242;DHT22;9755;47.790;9.620;2022-09-27T07:33:34;9.80;99.90
19242;DHT22;9755;47.790;9.620;2022-09-27T07:36:07;9.60;1.00
19242;DHT22;9755;47.790;9.620;2022-09-27T07:38:35;9.60;1.00
19242;DHT22;9755;47.790;9.620;2022-09-27T07:41:06;9.60;1.00
19242;DHT22;9755;47.790;9.620;2022-09-27T07:43:33;9.60;1.00
19242;DHT22;9755;47.790;9.620;2022-09-27T07:46:00;9.60;1.00
19242;DHT22;9755;47.790;9.620;2022-09-27T07:48:27;9.60;92.90
19242;DHT22;9755;47.790;9.620;2022-09-27T07:50:54;9.50;62.50
19242;DHT22;9755;47.790;9.620;2022-09-27T07:53:23;9.50;62.90
19242;DHT22;9755;47.790;9.620;2022-09-27T07:55:50;9.60;1.00
19242;DHT22;9755;47.790;9.620;2022-09-27T07:58:19;9.60;1.00
19242;DHT22;9755;47.790;9.620;2022-09-27T08:00:47;9.50;1.00
19242;DHT22;9755;47.790;9.620;2022-09-27T08:03:15;9.50;1.00
19242;DHT22;9755;47.790;9.620;2022-09-27T08:05:43;9.50;1.00
19242;DHT22;9755;47.790;9.620;2022-09-27T08:08:12;9.40;1.00
19242;DHT22;9755;47.790;9.620;2022-09-27T08:10:41;9.40;1.00
19242;DHT22;9755;47.790;9.620;2022-09-27T08:13:09;9.30;1.00
19242;DHT22;9755;47.790;9.620;2022-09-27T08:15:36;9.30;1.00
19242;DHT22;9755;47.790;9.620;2022-09-27T08:18:05;9.30;1.00
19242;DHT22;9755;47.790;9.620;2022-09-27T08:20:34;9.30;1.00
19242;DHT22;9755;47.790;9.620;2022-09-27T08:23:01;9.30;1.00
19242;DHT22;9755;47.790;9.620;2022-09-27T08:25:29;9.40;1.00
19242;DHT22;9755;47.790;9.620;2022-09-27T08:27:58;9.60;1.00
19242;DHT22;9755;47.790;9.620;2022-09-27T08:30:27;9.60;99.90
19242;DHT22;9755;47.790;9.620;2022-09-27T08:32:56;9.50;99.90
19242;DHT22;9755;47.790;9.620;2022-09-27T08:35:23;9.40;99.90
19242;DHT22;9755;47.790;9.620;2022-09-27T08:37:55;9.50;1.00
19242;DHT22;9755;47.790;9.620;2022-09-27T08:40:23;9.40;99.90
19242;DHT22;9755;47.790;9.620;2022-09-27T08:43:00;9.40;99.90
19242;DHT22;9755;47.790;9.620;2022-09-27T08:45:33;9.60;99.90
19242;DHT22;9755;47.790;9.620;2022-09-27T08:48:04;9.80;5.30
19242;DHT22;9755;47.790;9.620;2022-09-27T08:50:36;10.10;1.00
19242;DHT22;9755;47.790;9.620;2022-09-27T08:53:10;10.00;99.90
19242;DHT22;9755;47.790;9.620;2022-09-27T08:55:41;9.80;1.00
19242;DHT22;9755;47.790;9.620;2022-09-27T08:58:15;9.80;99.90
19242;DHT22;9755;47.790;9.620;2022-09-27T09:00:48;9.90;99.90
19242;DHT22;9755;47.790;9.620;2022-09-27T09:03:18;10.00;1.00
19242;DHT22;9755;47.790;9.620;2022-09-27T09:05:54;10.20;1.00
19242;DHT22;9755;47.790;9.620;2022-09-27T09:08:30;10.40;99.90
19242;DHT22;9755;47.790;9.620;2022-09-27T09:11:05;10.40;1.00
19242;DHT22;9755;47.790;9.620;2022-09-27T09:14:36;10.50;41.30
19242;DHT22;9755;47.790;9.620;2022-09-27T09:17:14;10.60;1.00
19242;DHT22;9755;47.790;9.620;2022-09-27T09:20:00;10.60;1.00
19242;DHT22;9755;47.790;9.620;2022-09-27T09:22:40;10.60;53.00
19242;DHT22;9755;47.790;9.620;2022-09-27T09:25:27;10.60;99.90
19242;DHT22;9755;47.790;9.620;2022-09-27T09:28:10;10.50;99.90
19242;DHT22;9755;47.790;9.620;2022-09-27T09:30:49;10.70;43.30
19242;DHT22;9755;47.790;9.620;2022-09-27T09:33:25;10.80;1.00
19242;DHT22;9755;47.790;9.620;2022-09-27T09:35:56;11.00;1.00
19242;DHT22;9755;47.790;9.620;2022-09-27T09:38:34;11.30;1.00
19242;DHT22;9755;47.790;9.620;2022-09-27T09:41:06;11.70;99.90
19242;DHT22;9755;47.790;9.620;2022-09-27T09:43:36;12.20;99.90
19242;DHT22;9755;47.790;9.620;2022-09-27T09:46:12;12.10;99.90
19242;DHT22;9755;47.790;9.620;2022-09-27T09:48:43;11.70;1.00
19242;DHT22;9755;47.790;9.620;2022-09-27T09:51:16;11.70;1.00
19242;DHT22;9755;47.790;9.620;2022-09-27T09:53:52;12.30;1.00
19242;DHT22;9755;47.790;9.620;2022-09-27T09:56:23;12.30;1.00
19242;DHT22;9755;47.790;9.620;2022-09-27T09:58:54;13.40;99.90
19242;DHT22;9755;47.790;9.620;2022-09-27T10:01:27;13.80;1.00
19242;DHT22;9755;47.790;9.620;2022-09-27T10:03:55;14.70;1.00
19242;DHT22;9755;47.790;9.620;2022-09-27T10:06:23;14.30;1.00
19242;DHT22;9755;47.790;9.620;2022-09-27T10:08:52;13.40;1.00
19242;DHT22;9755;47.790;9.620;2022-09-27T10:11:23;12.90;1.00
19242;DHT22;9755;47.790;9.620;2022-09-27T10:13:51;12.70;99.90
19242;DHT22;9755;47.790;9.620;2022-09-27T10:16:20;12.20;26.70
19242;DHT22;9755;47.790;9.620;2022-09-27T10:19:06;12.10;99.90
19242;DHT22;9755;47.790;9.620;2022-09-27T10:21:39;12.10;1.00
19242;DHT22;9755;47.790;9.620;2022-09-27T10:24:10;12.00;99.90
19242;DHT22;9755;47.790;9.620;2022-09-27T10:26:39;11.40;99.90
19242;DHT22;9755;47.790;9.620;2022-09-27T10:29:19;11.30;1.00
19242;DHT22;9755;47.790;9.620;2022-09-27T10:31:48;11.40;1.00
19242;DHT22;9755;47.790;9.620;2022-09-27T10:34:30;11.30;1.00
19242;DHT22;9755;47.790;9.620;2022-09-27T10:37:12;11.50;99.90
19242;DHT22;9755;47.790;9.620;2022-09-27T10:39:42;11.70;1.00
19242;DHT22;9755;47.790;9.620;2022-09-27T10:42:20;11.90;1.00
19242;DHT22;9755;47.790;9.620;2022-09-27T10:44:48;12.50;1.00
19242;DHT22;9755;47.790;9.620;2022-09-27T10:47:18;12.90;40.60
19242;DHT22;9755;47.790;9.620;2022-09-27T10:49:49;12.90;1.00
19242;DHT22;9755;47.790;9.620;2022-09-27T10:52:18;13.10;1.00
19242;DHT22;9755;47.790;9.620;2022-09-27T10:54:53;13.30;1.00
19242;DHT22;9755;47.790;9.620;2022-09-27T10:57:22;13.50;1.00
19242;DHT22;9755;47.790;9.620;2022-09-27T10:59:53;13.80;1.00
19242;DHT22;9755;47.790;9.620;2022-09-27T11:02:25;14.30;1.00
19242;DHT22;9755;47.790;9.620;2022-09-27T11:05:07;14.60;1.00
19242;DHT22;9755;47.790;9.620;2022-09-27T11:07:36;14.20;1.00
19242;DHT22;9755;47.790;9.620;2022-09-27T11:10:21;13.60;1.00
19242;DHT22;9755;47.790;9.620;2022-09-27T11:13:06;12.80;1.00
19242;DHT22;9755;47.790;9.620;2022-09-27T11:15:41;12.00;99.90
19242;DHT22;9755;47.790;9.620;2022-09-27T11:18:18;11.60;99.90
19242;DHT22;9755;47.790;9.620;2022-09-27T11:20:54;11.10;1.00
19242;DHT22;9755;47.790;9.620;2022-09-27T11:23:37;10.50;1.00
19242;DHT22;9755;47.790;9.620;2022-09-27T11:26:30;10.30;99.90
19242;DHT22;9755;47.790;9.620;2022-09-27T11:29:06;10.20;1.00
19242;DHT22;9755;47.790;9.620;2022-09-27T11:31:45;10.20;1.00
19242;DHT22;9755;47.790;9.620;2022-09-27T11:34:27;10.00;1.00
19242;DHT22;9755;47.790;9.620;2022-09-27T11:37:11;9.90;99.90
19242;DHT22;9755;47.790;9.620;2022-09-27T11:39:50;9.90;1.00
19242;DHT22;9755;47.790;9.620;2022-09-27T11:42:49;10.20;1.00
19242;DHT22;9755;47.790;9.620;2022-09-27T11:45:30;10.70;1.00
19242;DHT22;9755;47.790;9.620;2022-09-27T11:48:11;10.50;1.00
19242;DHT22;9755;47.790;9.620;2022-09-27T11:50:52;10.40;99.90
19242;DHT22;9755;47.790;9.620;2022-09-27T11:53:34;10.30;1.00
19242;DHT22;9755;47.790;9.620;2022-09-27T11:56:14;10.20;1.00
19242;DHT22;9755;47.790;9.620;2022-09-27T11:58:53;10.40;99.90
19242;DHT22;9755;47.790;9.620;2022-09-27T12:01:30;10.60;1.00
19242;DHT22;9755;47.790;9.620;2022-09-27T12:04:25;10.90;1.00
19242;DHT22;9755;47.790;9.620;2022-09-27T12:07:02;10.90;99.90
19242;DHT22;9755;47.790;9.620;2022-09-27T12:09:35;10.90;99.90
19242;DHT22;9755;47.790;9.620;2022-09-27T12:12:08;10.60;22.30
19242;DHT22;9755;47.790;9.620;2022-09-27T12:14:39;10.40;1.00
19242;DHT22;9755;47.790;9.620;2022-09-27T12:17:13;10.30;1.00
19242;DHT22;9755;47.790;9.620;2022-09-27T12:19:45;10.40;42.40
19242;DHT22;9755;47.790;9.620;2022-09-27T12:22:18;10.60;99.90
19242;DHT22;9755;47.790;9.620;2022-09-27T12:24:49;10.90;1.00
19242;DHT22;9755;47.790;9.620;2022-09-27T12:27:26;11.20;99.90
19242;DHT22;9755;47.790;9.620;2022-09-27T12:29:54;12.10;1.00
19242;DHT22;9755;47.790;9.620;2022-09-27T12:32:26;12.90;1.00
19242;DHT22;9755;47.790;9.620;2022-09-27T12:34:59;12.60;99.90
19242;DHT22;9755;47.790;9.620;2022-09-27T12:37:31;12.20;1.00
19242;DHT22;9755;47.790;9.620;2022-09-27T12:40:05;12.20;1.00
19242;DHT22;9755;47.790;9.620;2022-09-27T12:42:37;12.40;1.00
19242;DHT22;9755;47.790;9.620;2022-09-27T12:45:10;11.90;1.00
19242;DHT22;9755;47.790;9.620;2022-09-27T12:47:49;12.00;1.00
19242;DHT22;9755;47.790;9.620;2022-09-27T12:50:26;12.20;1.00
19242;DHT22;9755;47.790;9.620;2022-09-27T12:52:57;12.60;99.90
19242;DHT22;9755;47.790;9.620;2022-09-27T12:59:01;13.30;1.00
19242;DHT22;9755;47.790;9.620;2022-09-27T13:01:51;13.00;1.00
19242;DHT22;9755;47.790;9.620;2022-09-27T13:04:44;12.70;1.00
19242;DHT22;9755;47.790;9.620;2022-09-27T13:07:27;12.60;1.00
19242;DHT22;9755;47.790;9.620;2022-09-27T13:10:18;12.60;1.00
19242;DHT22;9755;47.790;9.620;2022-09-27T13:12:50;12.70;1.00
19242;DHT22;9755;47.790;9.620;2022-09-27T13:15:25;13.00;1.00
19242;DHT22;9755;47.790;9.620;2022-09-27T13:17:57;13.20;1.00
19242;DHT22;9755;47.790;9.620;2022-09-27T13:20:47;13.20;1.00
19242;DHT22;9755;47.790;9.620;2022-09-27T13:26:22;13.60;1.00
19242;DHT22;9755;47.790;9.620;2022-09-27T13:28:59;13.60;1.00
19242;DHT22;9755;47.790;9.620;2022-09-27T13:34:41;13.00;1.00
19242;DHT22;9755;47.790;9.620;2022-09-27T13:37:31;12.90;1.00
19242;DHT22;9755;47.790;9.620;2022-09-27T13:40:23;12.80;1.00
19242;DHT22;9755;47.790;9.620;2022-09-27T13:45:53;12.60;1.00
19242;DHT22;9755;47.790;9.620;2022-09-27T13:48:26;12.90;1.00
19242;DHT22;9755;47.790;9.620;2022-09-27T13:51:00;13.20;1.00
19242;DHT22;9755;47.790;9.620;2022-09-27T13:53:30;13.40;1.00
19242;DHT22;9755;47.790;9.620;2022-09-27T13:55:59;13.40;1.00
19242;DHT22;9755;47.790;9.620;2022-09-27T13:58:42;13.10;1.00
19242;DHT22;9755;47.790;9.620;2022-09-27T14:01:16;13.00;1.00
19242;DHT22;9755;47.790;9.620;2022-09-27T14:03:55;13.00;1.00
19242;DHT22;9755;47.790;9.620;2022-09-27T14:06:26;13.00;1.00
19242;DHT22;9755;47.790;9.620;2022-09-27T14:08:57;13.10;1.00
19242;DHT22;9755;47.790;9.620;2022-09-27T14:11:28;13.60;1.00
19242;DHT22;9755;47.790;9.620;2022-09-27T14:13:57;14.10;1.00
19242;DHT22;9755;47.790;9.620;2022-09-27T14:16:29;14.60;1.00
19242;DHT22;9755;47.790;9.620;2022-09-27T14:18:57;14.90;1.00
19242;DHT22;9755;47.790;9.620;2022-09-27T14:21:30;14.60;1.00
19242;DHT22;9755;47.790;9.620;2022-09-27T14:24:20;14.60;1.00
19242;DHT22;9755;47.790;9.620;2022-09-27T14:26:48;14.20;1.00
19242;DHT22;9755;47.790;9.620;2022-09-27T14:29:16;13.90;1.00
19242;DHT22;9755;47.790;9.620;2022-09-27T14:31:43;13.50;1.00
19242;DHT22;9755;47.790;9.620;2022-09-27T14:34:14;13.30;1.00
19242;DHT22;9755;47.790;9.620;2022-09-27T14:36:44;13.30;1.00
19242;DHT22;9755;47.790;9.620;2022-09-27T14:39:37;13.30;1.00
19242;DHT22;9755;47.790;9.620;2022-09-27T14:42:18;13.20;1.00
19242;DHT22;9755;47.790;9.620;2022-09-27T14:44:46;13.20;1.00
19242;DHT22;9755;47.790;9.620;2022-09-27T14:47:17;13.20;1.00
19242;DHT22;9755;47.790;9.620;2022-09-27T14:49:47;13.20;1.00
19242;DHT22;9755;47.790;9.620;2022-09-27T14:52:19;13.40;1.00
19242;DHT22;9755;47.790;9.620;2022-09-27T14:54:56;13.30;1.00
19242;DHT22;9755;47.790;9.620;2022-09-27T14:57:24;13.40;1.00
19242;DHT22;9755;47.790;9.620;2022-09-27T14:59:52;13.10;1.00
19242;DHT22;9755;47.790;9.620;2022-09-27T15:02:23;13.10;1.00
19242;DHT22;9755;47.790;9.620;2022-09-27T15:04:52;13.00;1.00
19242;DHT22;9755;47.790;9.620;2022-09-27T15:07:22;12.90;1.00
19242;DHT22;9755;47.790;9.620;2022-09-27T15:09:49;12.80;1.00
19242;DHT22;9755;47.790;9.620;2022-09-27T15:12:23;12.60;1.00
19242;DHT22;9755;47.790;9.620;2022-09-27T15:14:53;12.60;1.00
19242;DHT22;9755;47.790;9.620;2022-09-27T15:17:21;12.50;1.00
19242;DHT22;9755;47.790;9.620;2022-09-27T15:20:01;12.30;1.00
19242;DHT22;9755;47.790;9.620;2022-09-27T15:22:35;11.90;67.70
19242;DHT22;9755;47.790;9.620;2022-09-27T15:25:14;11.60;1.00
19242;DHT22;9755;47.790;9.620;2022-09-27T15:27:46;11.40;1.00
19242;DHT22;9755;47.790;9.620;2022-09-27T15:30:17;11.30;60.10
19242;DHT22;9755;47.790;9.620;2022-09-27T15:32:49;11.30;1.00
19242;DHT22;9755;47.790;9.620;2022-09-27T15:35:21;11.30;1.00
19242;DHT22;9755;47.790;9.620;2022-09-27T15:37:50;11.20;1.00
19242;DHT22;9755;47.790;9.620;2022-09-27T15:43:42;10.80;1.00
19242;DHT22;9755;47.790;9.620;2022-09-27T15:46:33;10.60;1.00
19242;DHT22;9755;47.790;9.620;2022-09-27T15:49:30;10.30;99.90
19242;DHT22;9755;47.790;9.620;2022-09-27T15:51:59;10.30;99.90
19242;DHT22;9755;47.790;9.620;2022-09-27T15:54:29;10.20;1.00
19242;DHT22;9755;47.790;9.620;2022-09-27T15:57:01;10.20;99.90
19242;DHT22;9755;47.790;9.620;2022-09-27T15:59:31;10.20;99.90
19242;DHT22;9755;47.790;9.620;2022-09-27T16:02:01;10.20;99.90
19242;DHT22;9755;47.790;9.620;2022-09-27T16:04:28;10.20;1.00
19242;DHT22;9755;47.790;9.620;2022-09-27T16:06:57;10.20;1.00
19242;DHT22;9755;47.790;9.620;2022-09-27T16:09:28;10.10;1.00
19242;DHT22;9755;47.790;9.620;2022-09-27T16:11:55;10.00;1.00
19242;DHT22;9755;47.790;9.620;2022-09-27T16:14:22;10.00;99.90
19242;DHT22;9755;47.790;9.620;2022-09-27T16:16:50;9.90;99.90
19242;DHT22;9755;47.790;9.620;2022-09-27T16:19:18;9.80;99.90
19242;DHT22;9755;47.790;9.620;2022-09-27T16:21:45;9.70;99.90
19242;DHT22;9755;47.790;9.620;2022-09-27T16:24:13;9.70;1.00
19242;DHT22;9755;47.790;9.620;2022-09-27T16:26:43;9.60;1.00
19242;DHT22;9755;47.790;9.620;2022-09-27T16:29:12;9.60;99.90
19242;DHT22;9755;47.790;9.620;2022-09-27T16:31:39;9.50;99.90
19242;DHT22;9755;47.790;9.620;2022-09-27T16:34:07;9.40;1.00
19242;DHT22;9755;47.790;9.620;2022-09-27T16:36:35;9.40;1.00
19242;DHT22;9755;47.790;9.620;2022-09-27T16:39:05;9.30;99.90
19242;DHT22;9755;47.790;9.620;2022-09-27T16:41:32;9.30;99.90
19242;DHT22;9755;47.790;9.620;2022-09-27T16:44:06;9.30;1.00
19242;DHT22;9755;47.790;9.620;2022-09-27T16:46:33;9.30;1.00
19242;DHT22;9755;47.790;9.620;2022-09-27T16:49:00;9.30;1.00
19242;DHT22;9755;47.790;9.620;2022-09-27T16:51:27;9.30;1.00
19242;DHT22;9755;47.790;9.620;2022-09-27T16:54:12;9.30;1.00
19242;DHT22;9755;47.790;9.620;2022-09-27T16:56:40;9.20;1.00
19242;DHT22;9755;47.790;9.620;2022-09-27T16:59:08;9.20;1.00
19242;DHT22;9755;47.790;9.620;2022-09-27T17:01:36;9.20;99.90
19242;DHT22;9755;47.790;9.620;2022-09-27T17:04:03;9.20;22.60
19242;DHT22;9755;47.790;9.620;2022-09-27T17:06:30;8.90;1.00
19242;DHT22;9755;47.790;9.620;2022-09-27T17:09:01;8.80;1.00
19242;DHT22;9755;47.790;9.620;2022-09-27T17:11:28;8.70;1.00
19242;DHT22;9755;47.790;9.620;2022-09-27T17:13:56;8.70;1.00
19242;DHT22;9755;47.790;9.620;2022-09-27T17:16:24;8.70;99.90
19242;DHT22;9755;47.790;9.620;2022-09-27T17:18:53;8.70;99.90
19242;DHT22;9755;47.790;9.620;2022-09-27T17:21:20;8.70;99.90
19242;DHT22;9755;47.790;9.620;2022-09-27T17:23:47;8.60;99.90
19242;DHT22;9755;47.790;9.620;2022-09-27T17:26:16;8.60;99.90
19242;DHT22;9755;47.790;9.620;2022-09-27T17:28:43;8.60;99.90
19242;DHT22;9755;47.790;9.620;2022-09-27T17:31:12;8.60;99.90
19242;DHT22;9755;47.790;9.620;2022-09-27T17:33:42;8.60;99.90
19242;DHT22;9755;47.790;9.620;2022-09-27T17:36:12;8.60;99.90
19242;DHT22;9755;47.790;9.620;2022-09-27T17:38:39;8.70;99.90
19242;DHT22;9755;47.790;9.620;2022-09-27T17:41:09;8.70;99.90
19242;DHT22;9755;47.790;9.620;2022-09-27T17:43:37;8.70;99.90
19242;DHT22;9755;47.790;9.620;2022-09-27T17:46:08;8.70;99.90
19242;DHT22;9755;47.790;9.620;2022-09-27T17:48:36;8.70;99.90
19242;DHT22;9755;47.790;9.620;2022-09-27T17:51:22;8.70;99.90
19242;DHT22;9755;47.790;9.620;2022-09-27T17:53:50;8.70;99.90
19242;DHT22;9755;47.790;9.620;2022-09-27T17:56:18;8.80;99.90
19242;DHT22;9755;47.790;9.620;2022-09-27T17:58:46;8.80;99.90
19242;DHT22;9755;47.790;9.620;2022-09-27T18:01:13;8.80;99.90
19242;DHT22;9755;47.790;9.620;2022-09-27T18:03:40;8.80;99.90
19242;DHT22;9755;47.790;9.620;2022-09-27T18:06:09;8.80;99.90
19242;DHT22;9755;47.790;9.620;2022-09-27T18:08:38;8.80;99.90
19242;DHT22;9755;47.790;9.620;2022-09-27T18:11:07;8.80;99.90
19242;DHT22;9755;47.790;9.620;2022-09-27T18:13:35;8.80;99.90
19242;DHT22;9755;47.790;9.620;2022-09-27T18:16:07;8.80;99.90
19242;DHT22;9755;47.790;9.620;2022-09-27T18:18:36;8.70;99.90
19242;DHT22;9755;47.790;9.620;2022-09-27T18:21:05;8.60;99.90
19242;DHT22;9755;47.790;9.620;2022-09-27T18:23:32;8.60;99.90
19242;DHT22;9755;47.790;9.620;2022-09-27T18:26:00;8.60;99.90
19242;DHT22;9755;47.790;9.620;2022-09-27T18:28:29;8.60;99.90
19242;DHT22;9755;47.790;9.620;2022-09-27T18:31:01;8.70;99.90
19242;DHT22;9755;47.790;9.620;2022-09-27T18:33:30;8.70;99.90
19242;DHT22;9755;47.790;9.620;2022-09-27T18:36:02;8.70;99.90
19242;DHT22;9755;47.790;9.620;2022-09-27T18:38:30;8.70;99.90
19242;DHT22;9755;47.790;9.620;2022-09-27T18:41:05;8.70;99.90
19242;DHT22;9755;47.790;9.620;2022-09-27T18:43:33;8.70;90.10
19242;DHT22;9755;47.790;9.620;2022-09-27T18:46:01;8.60;99.90
19242;DHT22;9755;47.790;9.620;2022-09-27T18:48:30;8.60;99.90
19242;DHT22;9755;47.790;9.620;2022-09-27T18:50:57;8.60;99.90
19242;DHT22;9755;47.790;9.620;2022-09-27T18:53:24;8.70;92.70
19242;DHT22;9755;47.790;9.620;2022-09-27T18:55:51;8.70;96.70
19242;DHT22;9755;47.790;9.620;2022-09-27T18:58:19;8.70;88.70
19242;DHT22;9755;47.790;9.620;2022-09-27T19:00:46;8.70;1.00
19242;DHT22;9755;47.790;9.620;2022-09-27T19:03:14;8.70;20.80
19242;DHT22;9755;47.790;9.620;2022-09-27T19:05:41;8.70;8.30
19242;DHT22;9755;47.790;9.620;2022-09-27T19:08:08;8.70;31.50
19242;DHT22;9755;47.790;9.620;2022-09-27T19:10:36;8.70;18.70
19242;DHT22;9755;47.790;9.620;2022-09-27T19:13:03;8.70;48.70
19242;DHT22;9755;47.790;9.620;2022-09-27T19:15:32;8.80;97.00
19242;DHT22;9755;47.790;9.620;2022-09-27T19:17:59;8.70;99.90
19242;DHT22;9755;47.790;9.620;2022-09-27T19:20:26;8.70;99.90
19242;DHT22;9755;47.790;9.620;2022-09-27T19:22:54;8.70;99.90
19242;DHT22;9755;47.790;9.620;2022-09-27T19:25:21;8.70;99.90
19242;DHT22;9755;47.790;9.620;2022-09-27T19:27:48;8.70;99.90
19242;DHT22;9755;47.790;9.620;2022-09-27T19:30:15;8.70;99.90
19242;DHT22;9755;47.790;9.620;2022-09-27T19:32:45;8.70;99.90
19242;DHT22;9755;47.790;9.620;2022-09-27T19:35:13;8.70;99.90
19242;DHT22;9755;47.790;9.620;2022-09-27T19:37:40;8.70;99.90
19242;DHT22;9755;47.790;9.620;2022-09-27T19:40:08;8.80;99.90
19242;DHT22;9755;47.790;9.620;2022-09-27T19:42:35;8.70;99.90
19242;DHT22;9755;47.790;9.620;2022-09-27T19:45:02;8.80;99.90
19242;DHT22;9755;47.790;9.620;2022-09-27T19:47:29;8.80;99.90
19242;DHT22;9755;47.790;9.620;2022-09-27T19:49:57;8.80;99.90
19242;DHT22;9755;47.790;9.620;2022-09-27T19:52:25;8.80;99.90
19242;DHT22;9755;47.790;9.620;2022-09-27T19:54:52;8.80;99.90
19242;DHT22;9755;47.790;9.620;2022-09-27T19:57:19;8.90;99.90
19242;DHT22;9755;47.790;9.620;2022-09-27T19:59:46;8.90;99.90
19242;DHT22;9755;47.790;9.620;2022-09-27T20:02:13;8.90;99.90
19242;DHT22;9755;47.790;9.620;2022-09-27T20:04:39;8.90;99.90
19242;DHT22;9755;47.790;9.620;2022-09-27T20:07:08;8.90;99.90
19242;DHT22;9755;47.790;9.620;2022-09-27T20:09:35;8.90;99.90
19242;DHT22;9755;47.790;9.620;2022-09-27T20:12:02;8.90;99.90
19242;DHT22;9755;47.790;9.620;2022-09-27T20:14:32;8.90;99.90
19242;DHT22;9755;47.790;9.620;2022-09-27T20:16:59;9.00;99.90